Time;durP1;ratioP1;P1;durP2;ratioP2;P2;SDS_P1;SDS_P2;PMS_P1;PMS_P2;Temp;Humidity;BMP_temperature;BMP_pressure;BME280_temperature;BME280_humidity;BME280_pressure;Samples;Min_cycle;Max_cycle;Signal;HPM_P1;HPM_P2
2022/08/03 00:01:54;;;;;;;2.05;1.60;;;23.50;63.80;;;;;;10519421;28;20021;-48
2022/08/03 00:06:55;;;;;;;3.17;1.38;;;23.50;63.80;;;;;;10519006;28;20028;-48
2022/08/03 00:11:55;;;;;;;2.33;1.48;;;23.50;63.70;;;;;;10519018;28;20024;-48
2022/08/03 00:16:57;;;;;;;3.45;1.40;;;23.50;63.80;;;;;;10535883;28;20036;-49
2022/08/03 00:21:57;;;;;;;2.95;1.40;;;23.50;63.80;;;;;;10536745;28;20032;-48
2022/08/03 00:26:58;;;;;;;2.67;1.55;;;23.50;63.80;;;;;;10536434;28;20032;-49
2022/08/03 00:31:58;;;;;;;4.40;2.05;;;23.50;63.70;;;;;;10488714;28;20110;-47
2022/08/03 00:36:59;;;;;;;2.88;1.40;;;23.50;63.70;;;;;;10535930;28;20093;-48
2022/08/03 00:42:04;;;;;;;1.48;1.00;;;23.50;63.70;;;;;;10535898;28;20028;-50
2022/08/03 00:47:05;;;;;;;1.70;1.30;;;23.50;63.70;;;;;;10535689;28;20040;-47
2022/08/03 00:52:09;;;;;;;2.13;1.50;;;23.40;63.80;;;;;;10535634;28;20036;-50
2022/08/03 00:57:09;;;;;;;2.13;1.15;;;23.50;63.70;;;;;;10534989;28;20035;-46
2022/08/03 01:02:10;;;;;;;2.28;1.50;;;23.50;63.80;;;;;;10535391;28;20031;-48
2022/08/03 01:07:53;;;;;;;1.55;1.30;;;23.50;63.80;;;;;;10516324;28;20103;-51
2022/08/03 01:12:54;;;;;;;3.55;1.67;;;23.50;63.80;;;;;;10532274;28;20039;-50
2022/08/03 01:18:40;;;;;;;2.55;1.85;;;23.50;63.80;;;;;;10523327;28;20032;-47
2022/08/03 01:24:23;;;;;;;2.80;1.67;;;23.40;63.70;;;;;;10504063;28;20417;-49
2022/08/03 01:30:03;;;;;;;1.40;1.10;;;23.50;63.80;;;;;;10508100;28;20360;-47
2022/08/03 01:35:11;;;;;;;;;;;23.50;63.80;;;;;;10513747;28;20463;-49
2022/08/03 01:40:13;;;;;;;2.35;1.40;;;23.50;63.90;;;;;;10516748;28;19916;-47
2022/08/03 01:45:18;;;;;;;2.15;1.10;;;23.40;63.80;;;;;;10515056;28;20063;-50
2022/08/03 01:50:26;;;;;;;1.58;1.00;;;23.40;63.80;;;;;;10515737;28;20031;-51
2022/08/03 01:55:27;;;;;;;2.78;1.60;;;23.40;63.80;;;;;;10515513;28;20032;-48
2022/08/03 02:00:30;;;;;;;1.60;1.20;;;23.40;63.80;;;;;;10514966;28;20039;-50
2022/08/03 02:05:33;;;;;;;2.55;1.40;;;23.40;63.80;;;;;;10514656;28;20020;-50
2022/08/03 02:10:36;;;;;;;2.78;1.80;;;23.40;63.80;;;;;;10532724;28;20108;-49
2022/08/03 02:15:37;;;;;;;2.30;1.38;;;23.40;63.80;;;;;;10532439;28;20145;-48
2022/08/03 02:20:41;;;;;;;2.90;1.35;;;23.40;63.80;;;;;;10514656;28;20028;-49
2022/08/03 02:25:49;;;;;;;2.03;1.35;;;23.40;63.80;;;;;;10514212;28;20039;-49
2022/08/03 02:30:54;;;;;;;2.30;1.50;;;23.40;63.80;;;;;;10514983;28;20036;-48
2022/08/03 02:35:58;;;;;;;1.67;1.25;;;23.40;63.80;;;;;;10514293;28;20127;-48
2022/08/03 02:41:03;;;;;;;2.25;1.17;;;23.40;63.80;;;;;;10540443;28;20040;-50
2022/08/03 02:46:06;;;;;;;3.33;1.98;;;23.40;63.80;;;;;;10506431;28;20682;-46
2022/08/03 02:51:07;;;;;;;2.70;1.17;;;23.40;63.80;;;;;;10522917;28;20059;-48
2022/08/03 02:56:09;;;;;;;2.17;1.38;;;23.40;63.80;;;;;;10540321;28;20024;-50
2022/08/03 03:01:11;;;;;;;3.28;1.40;;;23.40;63.80;;;;;;10521814;28;20506;-48
2022/08/03 03:06:13;;;;;;;2.42;1.45;;;23.40;63.80;;;;;;10521720;28;20032;-50
2022/08/03 03:11:16;;;;;;;2.40;1.38;;;23.40;63.80;;;;;;10521104;28;20463;-47
2022/08/03 03:16:18;;;;;;;1.85;1.27;;;23.40;63.80;;;;;;10521747;28;20114;-51
2022/08/03 03:21:19;;;;;;;3.22;1.50;;;23.40;63.80;;;;;;10520770;28;20032;-52
2022/08/03 03:26:20;;;;;;;1.73;1.30;;;23.30;63.70;;;;;;10520457;28;20467;-49
2022/08/03 03:31:21;;;;;;;2.72;1.40;;;23.30;63.80;;;;;;10538683;28;20070;-49
2022/08/03 03:36:22;;;;;;;2.45;1.05;;;23.40;63.90;;;;;;10538376;28;20035;-49
2022/08/03 03:41:23;;;;;;;1.80;0.88;;;23.40;63.90;;;;;;10520298;28;20120;-49
2022/08/03 03:46:24;;;;;;;2.72;1.38;;;23.30;64.50;;;;;;10520059;28;20467;-47
2022/08/03 03:51:25;;;;;;;2.10;1.20;;;23.30;63.80;;;;;;10537032;28;20419;-48
2022/08/03 03:56:26;;;;;;;3.15;1.25;;;23.30;63.90;;;;;;10515811;28;20028;-49
2022/08/03 04:01:28;;;;;;;1.90;1.42;;;23.30;63.80;;;;;;10518355;28;20475;-49
2022/08/03 04:11:52;;;;;;;;;;;23.30;63.90;;;;;;10537391;28;20036;-48
2022/08/03 04:17:04;;;;;;;2.63;1.40;;;23.30;63.90;;;;;;10518794;28;19974;-48
2022/08/03 04:22:10;;;;;;;2.53;1.40;;;23.30;63.90;;;;;;10519237;28;20031;-49
2022/08/03 04:27:14;;;;;;;2.38;1.27;;;23.30;63.90;;;;;;10536277;28;20081;-48
2022/08/03 04:32:16;;;;;;;3.60;1.52;;;23.30;64.00;;;;;;10507373;28;20043;-48
2022/08/03 04:37:38;;;;;;;2.50;1.48;;;23.30;64.00;;;;;;10536056;28;20047;-48
2022/08/03 04:42:40;;;;;;;2.08;1.30;;;23.30;64.10;;;;;;10515977;28;20051;-48
2022/08/03 04:47:41;;;;;;;3.00;2.00;;;23.30;64.10;;;;;;10535363;28;20096;-48
2022/08/03 04:52:43;;;;;;;2.17;1.58;;;23.30;64.10;;;;;;10517175;28;20081;-49
2022/08/03 04:57:43;;;;;;;5.72;2.25;;;23.30;64.00;;;;;;10517122;28;20073;-51
2022/08/03 05:02:44;;;;;;;9.57;3.38;;;23.30;64.20;;;;;;10532807;28;20090;-51
2022/08/03 05:07:45;;;;;;;4.43;1.73;;;23.40;64.80;;;;;;10535120;28;20111;-51
2022/08/03 05:12:47;;;;;;;4.88;1.73;;;23.50;65.10;;;;;;10534681;28;20044;-49
2022/08/03 05:17:48;;;;;;;6.65;2.88;;;23.50;65.40;;;;;;10499897;28;20362;-49
2022/08/03 05:22:51;;;;;;;8.38;2.45;;;23.60;65.70;;;;;;10533382;28;20057;-47
2022/08/03 05:27:52;;;;;;;5.22;1.80;;;23.60;65.70;;;;;;10497691;28;20459;-48
2022/08/03 05:32:53;;;;;;;5.93;2.60;;;23.50;65.30;;;;;;10533252;28;20043;-49
2022/08/03 05:37:55;;;;;;;6.70;2.30;;;23.50;65.60;;;;;;10533818;28;20483;-45
2022/08/03 05:42:56;;;;;;;6.10;2.50;;;23.50;65.30;;;;;;10533416;28;20048;-47
2022/08/03 05:47:56;;;;;;;6.65;2.83;;;23.50;65.60;;;;;;10533568;28;20661;-47
2022/08/03 05:52:57;;;;;;;6.47;1.98;;;23.50;65.60;;;;;;10533835;28;20106;-46
2022/08/03 05:57:58;;;;;;;17.20;3.25;;;23.60;65.90;;;;;;10513389;28;20024;-46
2022/08/03 06:02:58;;;;;;;13.43;3.90;;;23.50;65.50;;;;;;10531763;28;20523;-47
2022/08/03 06:07:59;;;;;;;19.25;4.15;;;23.50;65.80;;;;;;10531946;28;20497;-47
2022/08/03 06:13:00;;;;;;;9.77;3.60;;;23.50;66.00;;;;;;10511883;28;20032;-46
2022/08/03 06:18:00;;;;;;;14.20;4.43;;;23.40;66.10;;;;;;10532930;28;20038;-46
2022/08/03 06:23:01;;;;;;;12.57;4.65;;;23.40;66.50;;;;;;10512474;28;20036;-47
2022/08/03 06:28:03;;;;;;;10.48;3.30;;;23.40;66.90;;;;;;10528590;28;20024;-52
2022/08/03 06:33:04;;;;;;;11.18;4.10;;;23.40;66.50;;;;;;10531627;28;20058;-48
2022/08/03 06:38:05;;;;;;;14.18;4.85;;;23.40;67.00;;;;;;10531775;28;20059;-46
2022/08/03 06:43:07;;;;;;;9.38;3.45;;;23.40;66.70;;;;;;10531889;28;20044;-45
2022/08/03 06:48:10;;;;;;;7.75;3.80;;;23.40;66.70;;;;;;10532253;28;20103;-45
2022/08/03 06:53:11;;;;;;;10.40;3.85;;;23.40;66.70;;;;;;10531587;28;20526;-46
2022/08/03 06:58:12;;;;;;;7.38;4.15;;;23.40;66.60;;;;;;10496610;28;20051;-46
2022/08/03 07:03:13;;;;;;;13.57;3.83;;;23.40;66.50;;;;;;10531481;28;20498;-46
2022/08/03 07:08:14;;;;;;;14.40;3.97;;;23.40;66.50;;;;;;10531177;28;20024;-46
2022/08/03 07:13:15;;;;;;;9.02;3.58;;;23.40;66.70;;;;;;10531207;28;20043;-47
2022/08/03 07:18:16;;;;;;;12.25;4.32;;;23.40;66.60;;;;;;10531072;28;20036;-48
2022/08/03 07:23:16;;;;;;;7.88;3.45;;;23.40;66.90;;;;;;10532795;28;20032;-47
2022/08/03 07:28:18;;;;;;;11.38;3.97;;;23.40;66.90;;;;;;10533166;28;20107;-49
2022/08/03 07:33:19;;;;;;;7.50;3.40;;;23.50;66.50;;;;;;10516072;28;20042;-47
2022/08/03 07:38:19;;;;;;;12.30;3.55;;;23.50;66.40;;;;;;10537707;28;20044;-47
2022/08/03 07:43:20;;;;;;;10.82;3.30;;;23.50;66.60;;;;;;10537858;28;20035;-48
2022/08/03 07:48:21;;;;;;;9.88;4.13;;;23.50;66.50;;;;;;10535826;28;20049;-46
2022/08/03 07:53:21;;;;;;;8.40;3.30;;;23.50;66.50;;;;;;10535682;28;20036;-48
2022/08/03 07:58:23;;;;;;;8.32;3.17;;;23.50;67.10;;;;;;10535374;28;20139;-47
2022/08/03 08:03:25;;;;;;;7.18;3.40;;;23.50;66.50;;;;;;10536817;28;20120;-47
2022/08/03 08:08:26;;;;;;;9.98;3.17;;;23.50;66.40;;;;;;10536995;28;20028;-48
2022/08/03 08:13:26;;;;;;;10.55;3.88;;;23.50;66.40;;;;;;10536330;28;20099;-47
2022/08/03 08:18:30;;;;;;;7.28;2.95;;;23.60;66.40;;;;;;10518086;28;20038;-49
2022/08/03 08:23:31;;;;;;;6.15;2.58;;;23.60;66.40;;;;;;10515999;28;20060;-48
2022/08/03 08:28:31;;;;;;;6.15;3.10;;;23.60;66.30;;;;;;10534731;28;20154;-46
2022/08/03 08:33:33;;;;;;;8.40;2.72;;;23.60;66.30;;;;;;10515625;28;20043;-47
2022/08/03 08:38:34;;;;;;;7.07;3.30;;;23.60;66.20;;;;;;10532538;28;20060;-48
2022/08/03 08:43:35;;;;;;;7.13;2.58;;;23.60;66.10;;;;;;10514822;28;20021;-48
2022/08/03 08:48:40;;;;;;;5.60;2.70;;;23.60;66.10;;;;;;10535564;28;20024;-47
2022/08/03 08:53:46;;;;;;;5.10;3.60;;;23.70;66.10;;;;;;10535700;28;20028;-46
2022/08/03 08:58:52;;;;;;;4.93;2.58;;;23.70;66.10;;;;;;10516853;28;20109;-47
2022/08/03 09:03:53;;;;;;;8.57;2.67;;;23.70;66.10;;;;;;10534908;28;20476;-48
2022/08/03 09:08:54;;;;;;;4.35;1.92;;;23.70;66.00;;;;;;10534498;28;20491;-48
2022/08/03 09:13:54;;;;;;;8.48;3.33;;;23.70;66.00;;;;;;10534739;28;20032;-46
2022/08/03 09:19:14;;;;;;;5.47;2.50;;;23.70;65.90;;;;;;10516420;28;20036;-47
2022/08/03 09:24:21;;;;;;;5.63;2.75;;;23.70;65.90;;;;;;10516252;28;20284;-48
2022/08/03 09:29:22;;;;;;;6.97;2.15;;;23.80;65.90;;;;;;10533217;28;20387;-47
2022/08/03 09:34:26;;;;;;;8.00;3.03;;;23.80;65.80;;;;;;10513539;28;20036;-46
2022/08/03 09:39:30;;;;;;;6.25;2.80;;;23.80;65.80;;;;;;10532875;28;20044;-46
2022/08/03 09:44:44;;;;;;;11.88;3.40;;;23.80;65.90;;;;;;10533693;28;20024;-49
2022/08/03 09:50:04;;;;;;;11.10;3.35;;;23.80;66.00;;;;;;10532995;28;20506;-47
2022/08/03 09:55:12;;;;;;;14.13;3.22;;;23.80;66.20;;;;;;10533443;28;20111;-49
2022/08/03 10:00:16;;;;;;;8.23;3.47;;;23.80;66.20;;;;;;10533264;28;20032;-47
2022/08/03 10:05:32;;;;;;;9.27;4.50;;;23.80;66.30;;;;;;10532659;28;20034;-47
2022/08/03 10:10:43;;;;;;;10.77;3.50;;;23.90;66.30;;;;;;10532779;28;20519;-48
2022/08/03 10:15:45;;;;;;;8.00;3.03;;;23.90;66.30;;;;;;10532081;28;20411;-47
2022/08/03 10:20:52;;;;;;;11.75;3.60;;;23.90;66.30;;;;;;10532658;28;20112;-47
2022/08/03 10:26:00;;;;;;;7.63;3.97;;;24.00;66.20;;;;;;10511950;28;20043;-49
2022/08/03 10:31:03;;;;;;;11.43;3.47;;;23.90;66.20;;;;;;10532353;28;20360;-48
2022/08/03 10:36:06;;;;;;;10.98;3.20;;;23.90;66.20;;;;;;10513328;28;20039;-48
2022/08/03 10:41:08;;;;;;;9.65;3.28;;;23.90;66.10;;;;;;10527641;28;20064;-48
2022/08/03 10:46:09;;;;;;;10.15;3.22;;;24.00;66.10;;;;;;10511261;28;20555;-48
2022/08/03 10:51:10;;;;;;;10.13;3.53;;;24.00;66.10;;;;;;10532301;28;20020;-48
2022/08/03 11:02:09;;;;;;;8.40;3.50;;;24.10;65.80;;;;;;10471527;28;20036;-47
2022/08/03 11:07:22;;;;;;;7.70;3.20;;;24.10;65.70;;;;;;10521559;28;20612;-47
2022/08/03 11:12:32;;;;;;;7.63;2.95;;;24.20;65.60;;;;;;10539969;28;20062;-50
2022/08/03 11:17:33;;;;;;;6.60;3.50;;;24.20;65.70;;;;;;10539282;28;20040;-48
2022/08/03 11:22:53;;;;;;;9.25;3.83;;;24.10;65.70;;;;;;10520896;28;20448;-47
2022/08/03 11:28:27;;;;;;;6.85;2.75;;;24.20;65.60;;;;;;10517820;28;20250;-46
2022/08/03 11:33:30;;;;;;;6.30;2.90;;;24.20;65.60;;;;;;10489163;28;20062;-48
2022/08/03 11:38:30;;;;;;;8.52;3.35;;;24.20;65.40;;;;;;10537403;28;20079;-46
2022/08/03 11:43:33;;;;;;;6.78;3.15;;;24.20;65.40;;;;;;10516965;28;20542;-49
2022/08/03 11:48:34;;;;;;;5.82;2.55;;;24.20;65.40;;;;;;10535455;28;20024;-47
2022/08/03 11:53:35;;;;;;;6.30;2.63;;;24.30;65.40;;;;;;10533295;28;20703;-48
2022/08/03 11:58:35;;;;;;;6.70;2.92;;;24.20;65.30;;;;;;10534608;28;20036;-47
2022/08/03 12:03:36;;;;;;;9.23;3.03;;;24.30;65.40;;;;;;10533712;28;20036;-48
2022/08/03 12:08:37;;;;;;;4.70;2.70;;;24.30;65.40;;;;;;10517216;28;20104;-48
2022/08/03 12:13:46;;;;;;;6.43;2.42;;;24.30;65.30;;;;;;10501155;28;20032;-47
2022/08/03 12:19:05;;;;;;;5.67;2.27;;;24.30;65.40;;;;;;10537249;28;20057;-49
2022/08/03 12:24:06;;;;;;;7.32;2.90;;;24.30;65.40;;;;;;10537067;28;20294;-48
2022/08/03 12:29:06;;;;;;;4.53;2.38;;;24.30;65.30;;;;;;10518466;28;20040;-49
2022/08/03 12:34:08;;;;;;;5.07;2.40;;;24.30;65.30;;;;;;10518180;28;20095;-48
2022/08/03 12:39:10;;;;;;;5.18;2.25;;;24.30;65.20;;;;;;10536545;28;20043;-47
2022/08/03 12:44:11;;;;;;;5.88;2.20;;;24.30;65.20;;;;;;10518473;28;20040;-50
2022/08/03 12:49:14;;;;;;;6.00;2.28;;;24.30;65.20;;;;;;10513908;28;20455;-48
2022/08/03 12:54:17;;;;;;;5.95;2.08;;;24.30;65.10;;;;;;10535624;28;20086;-48
2022/08/03 12:59:35;;;;;;;7.57;2.53;;;24.30;65.00;;;;;;10532916;28;20028;-52
2022/08/03 13:04:36;;;;;;;8.95;2.65;;;24.30;64.90;;;;;;10533450;28;20048;-52
2022/08/03 13:09:55;;;;;;;6.82;2.47;;;24.40;64.80;;;;;;10535174;28;20965;-53
2022/08/03 13:14:58;;;;;;;5.90;2.80;;;24.40;64.90;;;;;;10534538;28;20685;-46
2022/08/03 13:20:00;;;;;;;6.65;1.85;;;24.40;65.10;;;;;;10532745;28;20375;-52
2022/08/03 13:25:02;;;;;;;11.88;2.90;;;24.40;65.00;;;;;;10515818;28;20036;-50
2022/08/03 13:30:04;;;;;;;6.82;2.25;;;24.50;65.40;;;;;;10512937;28;20107;-51
2022/08/03 13:35:06;;;;;;;6.32;2.35;;;24.50;65.60;;;;;;10533932;28;20024;-52
2022/08/03 13:40:07;;;;;;;7.25;2.20;;;24.50;65.80;;;;;;10532378;28;20058;-50
2022/08/03 13:45:10;;;;;;;4.68;1.77;;;24.40;65.90;;;;;;10530775;28;20069;-53
2022/08/03 13:50:11;;;;;;;6.78;2.10;;;24.50;65.90;;;;;;10513073;28;20111;-49
2022/08/03 13:55:11;;;;;;;12.25;3.13;;;24.50;66.10;;;;;;10531544;28;20200;-51
2022/08/03 14:00:13;;;;;;;9.18;2.55;;;24.50;66.00;;;;;;10531831;28;20081;-54
2022/08/03 14:05:14;;;;;;;19.90;2.97;;;24.50;65.80;;;;;;10532830;28;20044;-53
2022/08/03 14:10:16;;;;;;;3.97;2.13;;;24.50;65.60;;;;;;10532493;28;20146;-54
2022/08/03 14:15:17;;;;;;;4.18;1.85;;;24.50;65.40;;;;;;10532327;28;20552;-53
2022/08/03 14:20:17;;;;;;;5.38;2.20;;;24.40;65.40;;;;;;10531514;28;20081;-51
2022/08/03 14:25:18;;;;;;;6.82;2.50;;;24.40;65.40;;;;;;10531445;28;20024;-49
2022/08/03 14:30:19;;;;;;;5.65;2.40;;;24.50;65.50;;;;;;10528470;28;20410;-52
2022/08/03 14:35:20;;;;;;;5.00;2.08;;;24.50;65.80;;;;;;10517512;28;20388;-54
2022/08/03 14:40:21;;;;;;;4.32;1.85;;;24.40;65.60;;;;;;10539100;28;20052;-52
2022/08/03 14:45:22;;;;;;;5.20;2.40;;;24.40;65.60;;;;;;10539442;28;20035;-56
2022/08/03 14:50:23;;;;;;;5.78;2.67;;;24.40;65.70;;;;;;10538101;28;20123;-52
2022/08/03 14:55:23;;;;;;;5.55;1.88;;;24.40;66.40;;;;;;10539843;28;20111;-53
2022/08/03 15:00:24;;;;;;;6.53;1.92;;;24.50;66.30;;;;;;10539367;28;20043;-48
2022/08/03 15:05:25;;;;;;;6.82;2.47;;;24.50;66.10;;;;;;10503756;28;20119;-48
2022/08/03 15:10:25;;;;;;;4.10;1.60;;;24.50;66.80;;;;;;10538734;28;20111;-51
2022/08/03 15:15:26;;;;;;;4.90;1.88;;;24.50;65.90;;;;;;10536277;28;20491;-48
2022/08/03 15:20:27;;;;;;;8.68;1.88;;;24.50;65.60;;;;;;10520748;28;20054;-50
2022/08/03 15:25:28;;;;;;;4.78;2.20;;;24.50;65.70;;;;;;10535748;28;20473;-52
2022/08/03 15:30:30;;;;;;;6.10;2.22;;;24.50;65.10;;;;;;10537325;28;20359;-48
2022/08/03 15:35:31;;;;;;;5.03;2.42;;;24.50;66.20;;;;;;10537842;28;20123;-51
2022/08/03 15:40:32;;;;;;;7.95;2.45;;;24.50;66.20;;;;;;10519527;28;20119;-48
2022/08/03 15:45:33;;;;;;;9.63;2.30;;;24.50;66.00;;;;;;10536752;28;20475;-49
2022/08/03 15:50:34;;;;;;;7.30;2.92;;;24.50;65.90;;;;;;10536821;28;20020;-48
2022/08/03 15:55:34;;;;;;;7.93;2.92;;;24.50;66.00;;;;;;10536316;28;20376;-50
2022/08/03 16:00:35;;;;;;;6.00;2.88;;;24.50;66.00;;;;;;10536078;28;20040;-48
2022/08/03 16:05:37;;;;;;;13.52;7.32;;;24.60;66.10;;;;;;10535822;28;20368;-47
2022/08/03 16:10:39;;;;;;;8.27;4.40;;;24.60;65.80;;;;;;10518024;28;20059;-48
2022/08/03 16:15:40;;;;;;;6.40;3.15;;;24.80;65.50;;;;;;10536139;28;20036;-49
2022/08/03 16:20:40;;;;;;;6.20;3.28;;;24.80;65.60;;;;;;10536470;28;20662;-49
2022/08/03 16:25:43;;;;;;;5.30;3.20;;;24.90;64.90;;;;;;10536386;28;20127;-49
2022/08/03 16:30:45;;;;;;;7.88;2.80;;;24.80;65.00;;;;;;10535096;28;20551;-50
2022/08/03 16:35:48;;;;;;;7.00;2.78;;;24.80;65.20;;;;;;10535235;28;20559;-49
2022/08/03 16:40:51;;;;;;;5.03;2.40;;;24.80;65.30;;;;;;10534979;28;20093;-49
2022/08/03 16:45:52;;;;;;;4.43;2.25;;;24.80;65.40;;;;;;10534158;28;20476;-50
2022/08/03 16:50:53;;;;;;;4.57;2.65;;;24.80;65.20;;;;;;10534318;28;20027;-48
2022/08/03 16:55:54;;;;;;;8.05;2.78;;;24.80;65.40;;;;;;10529921;28;20435;-53
2022/08/03 17:00:55;;;;;;;7.20;2.53;;;24.80;66.10;;;;;;10534862;28;20505;-51
2022/08/03 17:05:56;;;;;;;8.02;2.58;;;24.80;66.10;;;;;;10530824;28;20039;-53
2022/08/03 17:10:57;;;;;;;6.32;2.40;;;24.90;66.20;;;;;;10533876;28;20043;-51
2022/08/03 17:16:02;;;;;;;9.32;3.33;;;25.00;65.80;;;;;;10534726;28;20114;-54
2022/08/03 17:21:05;;;;;;;11.50;3.13;;;24.90;66.10;;;;;;10514844;28;20036;-52
2022/08/03 17:26:11;;;;;;;4.70;2.90;;;24.90;66.20;;;;;;10533473;28;20031;-53
2022/08/03 17:31:13;;;;;;;9.10;2.92;;;24.90;66.00;;;;;;10503808;28;20036;-53
2022/08/03 17:36:25;;;;;;;7.97;2.90;;;24.80;65.80;;;;;;10515918;28;20493;-53
2022/08/03 17:41:26;;;;;;;7.72;2.55;;;24.90;65.70;;;;;;10532612;28;20134;-51
2022/08/03 17:46:26;;;;;;;6.28;2.58;;;24.90;65.60;;;;;;10531666;28;20040;-53
2022/08/03 17:51:42;;;;;;;5.30;3.08;;;24.90;65.40;;;;;;10519064;28;20615;-49
2022/08/03 17:57:00;;;;;;;6.80;3.13;;;24.90;65.70;;;;;;10510870;28;20044;-53
2022/08/03 18:07:49;;;;;;;7.85;3.33;;;24.90;65.00;;;;;;10528290;28;20039;-51
2022/08/03 18:13:02;;;;;;;6.50;3.73;;;24.90;65.40;;;;;;10528325;28;20036;-50
2022/08/03 18:18:06;;;;;;;4.35;2.58;;;24.80;65.60;;;;;;10514918;28;20479;-53
2022/08/03 18:23:09;;;;;;;10.15;2.78;;;24.80;65.90;;;;;;10532574;28;20119;-48
2022/08/03 18:28:12;;;;;;;9.32;3.33;;;24.80;66.20;;;;;;10532594;28;20027;-50
2022/08/03 18:33:17;;;;;;;4.53;2.30;;;24.80;66.50;;;;;;10531998;28;20032;-49
2022/08/03 18:38:19;;;;;;;8.32;2.70;;;24.80;66.50;;;;;;10532086;28;20044;-50
2022/08/03 18:43:21;;;;;;;7.20;2.90;;;24.80;66.70;;;;;;10514033;28;20043;-50
2022/08/03 18:48:33;;;;;;;6.55;2.65;;;24.80;66.80;;;;;;10531647;28;20050;-48
2022/08/03 18:54:05;;;;;;;6.97;3.25;;;24.80;66.70;;;;;;10514079;28;20036;-48
2022/08/03 18:59:20;;;;;;;3.92;2.00;;;24.80;66.70;;;;;;10505093;28;20055;-49
2022/08/03 19:04:25;;;;;;;6.53;3.08;;;24.80;66.60;;;;;;10513977;28;20651;-48
2022/08/03 19:09:48;;;;;;;5.93;2.63;;;24.80;66.60;;;;;;10530469;28;20020;-49
2022/08/03 19:14:55;;;;;;;6.20;3.03;;;24.80;67.30;;;;;;10529692;28;20755;-54
2022/08/03 19:19:57;;;;;;;5.32;2.40;;;24.80;67.80;;;;;;10532480;28;20128;-53
2022/08/03 19:25:01;;;;;;;4.55;2.13;;;24.80;67.40;;;;;;10538172;28;20417;-50
2022/08/03 19:30:05;;;;;;;6.05;2.50;;;24.80;67.30;;;;;;10536347;28;20062;-53
2022/08/03 19:35:07;;;;;;;6.43;2.47;;;24.80;67.20;;;;;;10538243;28;20063;-50
2022/08/03 19:40:08;;;;;;;4.22;2.33;;;24.80;66.70;;;;;;10477534;28;20526;-50
2022/08/03 19:45:14;;;;;;;5.45;3.20;;;24.80;66.50;;;;;;10496083;28;20033;-53
2022/08/03 19:50:17;;;;;;;3.45;2.03;;;24.80;66.20;;;;;;10495370;28;20032;-53
2022/08/03 19:55:19;;;;;;;4.20;2.45;;;24.80;66.70;;;;;;10478453;28;20123;-53
2022/08/03 20:00:19;;;;;;;4.57;2.08;;;24.80;66.50;;;;;;10494713;28;20052;-53
2022/08/03 20:05:20;;;;;;;5.07;2.88;;;24.80;66.30;;;;;;10495486;28;20029;-54
2022/08/03 20:10:21;;;;;;;6.40;2.88;;;24.80;66.20;;;;;;10489442;28;20024;-54
2022/08/03 20:15:22;;;;;;;5.43;2.40;;;24.80;66.20;;;;;;10492071;28;20529;-54
2022/08/03 20:20:29;;;;;;;4.80;2.75;;;24.80;66.20;;;;;;10490706;28;20107;-52
2022/08/03 20:25:37;;;;;;;7.88;3.28;;;24.80;66.20;;;;;;10491879;28;20024;-51
2022/08/03 20:30:40;;;;;;;4.00;2.53;;;24.80;66.20;;;;;;10489591;28;20064;-52
2022/08/03 20:35:40;;;;;;;4.38;2.80;;;24.80;66.30;;;;;;10492889;28;20519;-54
2022/08/03 20:40:41;;;;;;;2.97;2.33;;;24.80;66.40;;;;;;10528119;28;20126;-54
2022/08/03 20:45:42;;;;;;;3.42;2.35;;;24.80;66.50;;;;;;10506392;28;20407;-52
2022/08/03 20:50:43;;;;;;;3.63;2.55;;;24.80;66.50;;;;;;10536179;28;20024;-54
2022/08/03 20:55:45;;;;;;;3.38;2.00;;;24.80;66.50;;;;;;10535458;28;20054;-53
2022/08/03 21:00:47;;;;;;;5.05;2.75;;;24.80;66.60;;;;;;10517272;28;20032;-53
2022/08/03 21:05:51;;;;;;;2.38;1.77;;;24.80;66.40;;;;;;10516924;28;20166;-50
2022/08/03 21:10:55;;;;;;;3.95;2.28;;;24.80;66.30;;;;;;10516988;28;20038;-54
2022/08/03 21:15:57;;;;;;;3.22;2.20;;;24.80;66.30;;;;;;10516893;28;20036;-53
2022/08/03 21:20:59;;;;;;;4.25;2.00;;;24.80;66.20;;;;;;10516143;28;20036;-53
2022/08/03 21:26:01;;;;;;;3.58;1.80;;;24.80;66.30;;;;;;10534287;28;20031;-56
2022/08/03 21:31:02;;;;;;;3.65;2.33;;;24.80;66.30;;;;;;10488124;28;20032;-50
2022/08/03 21:36:04;;;;;;;4.97;2.25;;;24.80;66.20;;;;;;10515909;28;20070;-53
2022/08/03 21:41:06;;;;;;;3.20;2.03;;;24.80;66.20;;;;;;10533497;28;20079;-52
2022/08/03 21:46:08;;;;;;;3.47;2.30;;;24.70;66.20;;;;;;10515540;28;20040;-52
2022/08/03 21:51:14;;;;;;;3.63;2.38;;;24.80;66.20;;;;;;10533576;28;20103;-53
2022/08/03 21:56:20;;;;;;;3.70;1.95;;;24.70;66.20;;;;;;10516379;28;20032;-53
2022/08/03 22:01:24;;;;;;;3.30;2.17;;;24.70;66.10;;;;;;10533019;28;20032;-54
2022/08/03 22:06:26;;;;;;;4.85;2.17;;;24.70;66.10;;;;;;10533179;28;20061;-50
2022/08/03 22:11:26;;;;;;;5.55;2.45;;;24.70;66.00;;;;;;10532459;28;20024;-52
2022/08/03 22:16:28;;;;;;;3.75;2.13;;;24.70;66.10;;;;;;10514776;28;20542;-53
2022/08/03 22:21:32;;;;;;;4.50;2.38;;;24.70;66.00;;;;;;10532408;28;20087;-53
2022/08/03 22:26:38;;;;;;;4.38;2.13;;;24.70;66.00;;;;;;10514654;28;20035;-54
2022/08/03 22:31:39;;;;;;;3.70;2.03;;;24.70;66.00;;;;;;10514597;28;20039;-53
2022/08/03 22:36:39;;;;;;;4.53;2.58;;;24.70;66.00;;;;;;10513904;28;20036;-53
2022/08/03 22:41:41;;;;;;;4.45;2.90;;;24.70;65.90;;;;;;10531879;28;20480;-54
2022/08/03 22:46:42;;;;;;;3.53;2.30;;;24.70;66.00;;;;;;10514484;28;20032;-53
2022/08/03 22:51:44;;;;;;;2.90;2.08;;;24.70;65.90;;;;;;10513763;28;20024;-53
2022/08/03 22:56:49;;;;;;;2.92;1.90;;;24.70;65.90;;;;;;10520064;28;20042;-53
2022/08/03 23:01:57;;;;;;;4.22;2.25;;;24.70;65.90;;;;;;10540015;28;20035;-52
2022/08/03 23:07:03;;;;;;;3.75;2.50;;;24.70;65.90;;;;;;10527015;28;20093;-54
2022/08/03 23:12:05;;;;;;;3.35;2.47;;;24.70;65.90;;;;;;10539709;28;20474;-53
2022/08/03 23:17:06;;;;;;;3.28;2.17;;;24.70;65.90;;;;;;10539903;28;20036;-54
2022/08/03 23:22:07;;;;;;;3.40;2.30;;;24.70;65.80;;;;;;10520841;28;20033;-53
2022/08/03 23:27:08;;;;;;;2.83;1.83;;;24.60;65.80;;;;;;10521049;28;20532;-52
2022/08/03 23:32:10;;;;;;;3.65;2.17;;;24.70;65.80;;;;;;10505168;28;20027;-54
2022/08/03 23:37:13;;;;;;;4.63;2.22;;;24.70;65.80;;;;;;10538723;28;20130;-53
2022/08/03 23:42:17;;;;;;;3.92;2.17;;;24.60;65.70;;;;;;10538826;28;20367;-53
2022/08/03 23:47:18;;;;;;;3.30;1.75;;;24.70;65.80;;;;;;10538391;28;20062;-52
2022/08/03 23:52:56;;;;;;;3.80;2.10;;;24.70;65.70;;;;;;10538246;28;20118;-53
2022/08/03 23:58:13;;;;;;;2.78;1.90;;;24.70;65.70;;;;;;10522783;28;20202;-53
